Time;durP1;ratioP1;P1;durP2;ratioP2;P2;SDS_P1;SDS_P2;PMS_P1;PMS_P2;Temp;Humidity;BMP_temperature;BMP_pressure;BME280_temperature;BME280_humidity;BME280_pressure;Samples;Min_cycle;Max_cycle;Signal;HPM_P1;HPM_P2
2022/07/21 00:03:56;;;;;;;3.30;2.90;;;;;;;24.66;45.06;101705.72;16139093;19;130584;-55
2022/07/21 00:09:18;;;;;;;3.40;2.88;;;;;;;24.65;44.84;101696.50;16135822;19;129371;-54
2022/07/21 00:14:40;;;;;;;3.17;2.88;;;;;;;24.64;45.08;101703.19;16137752;19;129032;-53
2022/07/21 00:20:03;;;;;;;3.50;2.97;;;;;;;24.64;44.93;101693.94;16139767;19;129794;-52
2022/07/21 00:25:25;;;;;;;3.25;2.80;;;;;;;24.64;44.89;101693.94;16135004;19;128916;-55
2022/07/21 00:30:54;;;;;;;2.75;2.55;;;;;;;24.63;44.91;101695.06;16139666;19;129498;-54
2022/07/21 00:36:16;;;;;;;3.38;2.67;;;;;;;24.63;44.61;101697.84;16133544;19;129413;-54
2022/07/21 00:41:38;;;;;;;3.72;2.97;;;;;;;24.61;44.78;101689.72;16136317;19;128912;-53
2022/07/21 00:46:59;;;;;;;3.53;2.70;;;;;;;24.62;44.87;101690.56;16132561;19;129587;-55
2022/07/21 00:52:22;;;;;;;2.70;2.28;;;;;;;24.62;44.83;101693.38;16136824;19;129505;-54
2022/07/21 00:57:45;;;;;;;2.92;2.47;;;;;;;24.61;44.58;101691.69;16130236;19;131315;-53
2022/07/21 01:03:07;;;;;;;3.00;2.63;;;;;;;24.61;44.85;101694.50;16133205;19;129199;-53
2022/07/21 01:08:29;;;;;;;2.83;2.42;;;;;;;24.61;44.88;101683.31;16134760;19;130381;-51
2022/07/21 01:13:51;;;;;;;2.50;2.30;;;;;;;24.60;44.77;101698.41;16132679;19;129549;-54
2022/07/21 01:19:13;;;;;;;3.33;2.60;;;;;;;24.60;44.84;101704.00;16134395;19;130528;-55
2022/07/21 01:24:34;;;;;;;2.70;2.35;;;;;;;24.58;44.81;101710.72;16132155;19;129293;-55
2022/07/21 01:29:57;;;;;;;2.67;2.33;;;;;;;24.58;44.46;101707.91;16136653;19;129299;-54
2022/07/21 01:35:19;;;;;;;2.80;2.50;;;;;;;24.58;44.78;101699.50;16130774;19;129270;-55
2022/07/21 01:46:21;;;;;;;2.90;2.60;;;;;;;24.57;44.86;101694.16;16130343;19;129514;-54
2022/07/21 01:51:43;;;;;;;2.67;2.28;;;;;;;24.56;44.57;101693.34;16132285;19;130074;-53
2022/07/21 01:57:05;;;;;;;3.15;2.13;;;;;;;24.56;44.75;101684.94;16125337;19;129225;-53
2022/07/21 02:02:28;;;;;;;2.63;2.15;;;;;;;24.56;44.62;101706.47;16131066;19;129561;-53
2022/07/21 02:07:49;;;;;;;2.10;1.90;;;;;;;24.55;44.80;101708.44;16130484;19;130909;-55
2022/07/21 02:13:11;;;;;;;2.58;2.20;;;;;;;24.54;44.74;101706.75;16124614;19;129391;-54
2022/07/21 02:18:33;;;;;;;2.75;2.30;;;;;;;24.54;44.70;101703.13;16127954;19;129248;-55
2022/07/21 02:23:55;;;;;;;2.10;1.90;;;;;;;24.53;44.61;101702.25;16138687;19;130126;-53
2022/07/21 02:29:17;;;;;;;2.33;1.90;;;;;;;24.54;44.65;101703.13;16144182;19;131220;-49
2022/07/21 02:34:38;;;;;;;2.58;1.80;;;;;;;24.52;44.61;101683.78;16142548;19;130521;-52
2022/07/21 02:40:00;;;;;;;3.53;2.10;;;;;;;24.52;44.64;101685.75;16144973;19;130357;-54
2022/07/21 02:45:22;;;;;;;2.95;1.90;;;;;;;24.51;44.64;101668.13;16139795;19;129228;-54
2022/07/21 02:50:44;;;;;;;2.58;2.25;;;;;;;24.51;44.88;101662.53;16142791;19;130711;-51
2022/07/21 02:56:06;;;;;;;2.67;1.90;;;;;;;24.51;44.55;101664.50;16138474;19;130943;-54
2022/07/21 03:01:28;;;;;;;3.03;1.75;;;;;;;24.50;44.86;101668.41;16144218;19;129532;-53
2022/07/21 03:06:50;;;;;;;1.75;1.65;;;;;;;24.49;44.74;101670.38;16136720;19;129659;-54
2022/07/21 03:12:12;;;;;;;2.45;1.92;;;;;;;24.49;44.88;101663.91;16142588;19;129694;-54
2022/07/21 03:17:34;;;;;;;2.00;1.75;;;;;;;24.48;44.66;101667.81;16138573;19;130649;-55
2022/07/21 03:22:56;;;;;;;2.17;1.98;;;;;;;24.48;44.56;101668.69;16139716;19;129769;-54
2022/07/21 03:28:18;;;;;;;4.00;1.65;;;;;;;24.48;44.70;101679.00;16141999;19;130038;-55
2022/07/21 03:33:39;;;;;;;2.72;1.90;;;;;;;24.47;44.64;101672.59;16139438;19;129707;-55
2022/07/21 03:39:02;;;;;;;3.35;1.67;;;;;;;24.46;44.81;101684.88;16140855;19;129384;-54
2022/07/21 03:44:23;;;;;;;1.83;1.70;;;;;;;24.45;44.31;101688.78;16141191;19;129302;-55
2022/07/21 03:49:45;;;;;;;1.73;1.60;;;;;;;24.45;44.65;101674.81;16137500;19;129633;-55
2022/07/21 03:55:08;;;;;;;2.15;1.60;;;;;;;24.45;44.51;101680.41;16138750;19;129381;-55
2022/07/21 04:00:40;;;;;;;2.80;1.60;;;;;;;24.43;44.65;101688.22;16136590;19;129681;-51
2022/07/21 04:06:02;;;;;;;2.08;1.45;;;;;;;24.43;44.49;101682.63;16134575;19;129526;-56
2022/07/21 04:11:23;;;;;;;2.03;1.67;;;;;;;24.43;44.53;101691.00;16138250;19;129936;-55
2022/07/21 04:16:45;;;;;;;1.65;1.52;;;;;;;24.43;44.19;101691.00;16136776;19;129511;-53
2022/07/21 04:22:07;;;;;;;3.08;1.70;;;;;;;24.42;44.58;101697.69;16137216;19;130301;-55
2022/07/21 04:27:29;;;;;;;1.65;1.55;;;;;;;24.40;44.60;101688.72;16138114;19;129931;-56
2022/07/21 04:32:51;;;;;;;4.10;2.20;;;;;;;24.39;44.43;101687.91;16137449;19;130449;-56
2022/07/21 04:38:14;;;;;;;6.82;3.40;;;;;;;24.33;44.75;101691.75;16132521;19;130591;-56
2022/07/21 04:43:35;;;;;;;6.25;3.40;;;;;;;24.30;44.52;101694.25;16137377;19;130791;-57
2022/07/21 04:48:57;;;;;;;10.52;3.60;;;;;;;24.25;44.54;101686.66;16137379;19;130377;-57
2022/07/21 04:54:19;;;;;;;13.98;4.55;;;;;;;24.20;44.48;101698.63;16135310;19;129786;-56
2022/07/21 04:59:42;;;;;;;9.73;3.63;;;;;;;24.18;44.59;101692.44;16136849;19;129758;-57
2022/07/21 05:05:04;;;;;;;7.28;3.53;;;;;;;24.17;44.64;101699.13;16131637;19;130515;-57
2022/07/21 05:10:26;;;;;;;12.38;4.32;;;;;;;24.14;44.38;101691.28;16132043;19;130662;-55
2022/07/21 05:15:48;;;;;;;9.85;3.80;;;;;;;24.16;44.58;101702.22;16132385;19;129306;-56
2022/07/21 05:21:10;;;;;;;13.85;4.28;;;;;;;24.16;44.85;101686.28;16130864;19;128866;-56
2022/07/21 05:26:32;;;;;;;13.65;4.28;;;;;;;24.17;44.55;101679.56;16130077;19;129399;-56
2022/07/21 05:31:53;;;;;;;9.48;3.95;;;;;;;24.15;44.42;101676.19;16131743;19;129990;-57
2022/07/21 05:37:15;;;;;;;9.65;4.47;;;;;;;24.15;44.65;101665.00;16131092;19;129679;-57
2022/07/21 05:42:37;;;;;;;9.50;4.40;;;;;;;24.15;44.43;101670.59;16133142;19;130594;-56
2022/07/21 05:47:59;;;;;;;10.45;4.88;;;;;;;24.16;44.28;101688.25;16128485;19;129922;-58
2022/07/21 05:53:22;;;;;;;9.45;4.80;;;;;;;24.15;44.57;101687.38;16129249;19;129768;-57
2022/07/21 05:58:43;;;;;;;9.18;4.55;;;;;;;24.15;44.97;101686.53;16138615;19;129097;-57
2022/07/21 06:04:05;;;;;;;11.13;4.82;;;;;;;24.14;44.91;101712.81;16144579;19;129533;-55
2022/07/21 06:09:27;;;;;;;13.00;4.93;;;;;;;24.15;44.68;101698.56;16143960;19;131787;-57
2022/07/21 06:14:49;;;;;;;9.07;4.68;;;;;;;24.15;44.57;101692.97;16140048;19;130327;-57
2022/07/21 06:20:12;;;;;;;9.57;4.50;;;;;;;24.16;44.70;101700.25;16143613;19;130426;-56
2022/07/21 06:25:34;;;;;;;18.83;9.35;;;;;;;24.13;46.44;101711.94;16132697;19;129412;-54
2022/07/21 06:30:56;;;;;;;14.57;9.48;;;;;;;24.00;47.07;101718.00;16143739;19;129602;-55
2022/07/21 06:36:18;;;;;;;15.13;10.23;;;;;;;23.89;47.16;101729.03;16138806;19;129171;-57
2022/07/21 06:41:40;;;;;;;20.38;10.80;;;;;;;23.72;47.79;101725.53;16142143;19;130048;-57
2022/07/21 06:47:04;;;;;;;15.77;9.45;;;;;;;23.62;47.95;101729.03;16139296;19;130103;-59
2022/07/21 06:52:26;;;;;;;17.58;10.38;;;;;;;23.41;47.96;101731.56;16130590;19;129452;-59
2022/07/21 06:57:47;;;;;;;17.60;9.73;;;;;;;23.25;48.55;101724.94;16133697;19;130687;-58
2022/07/21 07:03:09;;;;;;;12.88;9.05;;;;;;;23.13;48.96;101733.41;15985920;19;2940686;-59
2022/07/21 07:08:32;;;;;;;13.15;8.48;;;;;;;23.07;49.10;101730.81;16143461;19;129771;-58
2022/07/21 07:13:54;;;;;;;13.20;8.52;;;;;;;23.05;49.27;101736.66;16140512;19;130069;-55
2022/07/21 07:19:25;;;;;;;11.93;8.00;;;;;;;23.07;49.23;101739.19;16133968;19;129929;-58
2022/07/21 07:24:47;;;;;;;12.80;9.05;;;;;;;23.03;49.47;101738.84;16137891;19;131666;-59
2022/07/21 07:30:10;;;;;;;11.85;8.07;;;;;;;22.96;49.50;101738.16;16139053;19;130446;-58
2022/07/21 07:35:31;;;;;;;9.57;7.30;;;;;;;22.98;49.85;101747.13;16141957;19;130612;-57
2022/07/21 07:40:53;;;;;;;12.32;6.72;;;;;;;23.07;49.69;101740.03;16141960;19;129355;-57
2022/07/21 07:46:15;;;;;;;9.63;6.45;;;;;;;23.14;49.34;101739.84;16140255;19;129444;-56
2022/07/21 07:51:37;;;;;;;7.38;5.47;;;;;;;23.16;49.55;101737.63;16132502;19;129116;-59
2022/07/21 07:56:59;;;;;;;8.57;5.07;;;;;;;23.20;49.36;101745.22;16132055;19;129513;-58
2022/07/21 08:02:21;;;;;;;7.05;4.90;;;;;;;23.18;49.08;101741.88;16135898;19;129227;-58
2022/07/21 08:07:43;;;;;;;7.25;3.97;;;;;;;23.19;49.36;101743.56;16138727;19;129819;-56
2022/07/21 08:13:04;;;;;;;5.13;3.50;;;;;;;23.23;49.12;101749.47;16139587;19;130470;-59
2022/07/21 08:18:28;;;;;;;4.22;3.63;;;;;;;23.29;49.11;101748.41;16131859;19;130406;-59
2022/07/21 08:23:50;;;;;;;4.75;3.47;;;;;;;23.37;49.21;101749.09;16140427;19;132764;-57
2022/07/21 08:29:12;;;;;;;3.95;3.17;;;;;;;23.42;49.00;101757.50;16135924;19;129655;-55
2022/07/21 08:34:33;;;;;;;4.55;3.00;;;;;;;23.44;48.89;101756.16;16132469;19;130700;-57
2022/07/21 08:39:55;;;;;;;4.40;2.88;;;;;;;23.48;49.00;101762.06;16128913;19;129563;-58
2022/07/21 08:45:17;;;;;;;12.90;3.47;;;;;;;23.51;49.11;101769.91;16136215;19;130388;-57
2022/07/21 08:50:40;;;;;;;7.43;3.60;;;;;;;23.50;48.86;101774.66;16135121;19;131271;-56
2022/07/21 08:56:02;;;;;;;9.63;4.47;;;;;;;23.50;48.61;101774.66;16131073;19;129233;-59
2022/07/21 09:01:23;;;;;;;5.35;4.03;;;;;;;23.51;48.39;101781.09;16135704;19;129756;-57
2022/07/21 09:06:52;;;;;;;7.35;4.68;;;;;;;23.51;48.31;101783.88;16128620;19;130486;-59
2022/07/21 09:12:13;;;;;;;5.43;4.28;;;;;;;23.53;48.21;101781.69;16131711;19;128997;-59
2022/07/21 09:17:35;;;;;;;5.90;4.60;;;;;;;23.55;47.90;101787.03;16130415;19;129556;-56
2022/07/21 09:23:20;;;;;;;6.32;4.90;;;;;;;23.56;48.06;101785.91;16131092;19;130528;-57
2022/07/21 09:28:42;;;;;;;7.82;5.18;;;;;;;23.49;48.22;101795.31;16133242;19;129486;-60
2022/07/21 09:34:14;;;;;;;6.18;4.43;;;;;;;23.52;48.26;101802.31;16131261;19;130108;-60
2022/07/21 09:39:56;;;;;;;6.43;4.57;;;;;;;23.53;48.00;101806.81;16130033;19;132321;-59
2022/07/21 09:45:19;;;;;;;6.60;4.18;;;;;;;23.54;48.13;101799.28;16135264;19;129640;-59
2022/07/21 09:50:41;;;;;;;7.05;4.32;;;;;;;23.51;48.25;101806.22;16131406;19;128856;-59
2022/07/21 09:56:03;;;;;;;11.50;4.55;;;;;;;23.51;48.14;101814.59;16132373;19;130189;-57
2022/07/21 10:01:26;;;;;;;8.75;4.63;;;;;;;23.52;47.74;101816.28;16132638;19;129245;-58
2022/07/21 10:06:48;;;;;;;5.57;3.83;;;;;;;23.53;48.12;101826.34;16125756;19;129320;-55
2022/07/21 10:12:10;;;;;;;6.38;3.85;;;;;;;23.55;47.95;101828.91;16133457;19;129441;-59
2022/07/21 10:17:32;;;;;;;6.25;3.35;;;;;;;23.58;47.79;101832.06;16131385;19;129852;-55
2022/07/21 10:23:12;;;;;;;7.05;3.80;;;;;;;23.58;47.82;101833.97;16131062;19;129211;-56
2022/07/21 10:28:40;;;;;;;;;;;;;;;23.53;48.10;101833.91;16132932;19;129548;-57
2022/07/21 10:34:02;;;;;;;5.93;3.42;;;;;;;23.58;48.13;101840.44;16125957;19;133000;-58
2022/07/21 10:39:25;;;;;;;6.95;4.55;;;;;;;23.50;47.75;101844.50;16121151;19;129381;-58
2022/07/21 10:44:47;;;;;;;9.27;4.60;;;;;;;23.38;47.83;101848.50;16139029;19;129214;-58
2022/07/21 10:50:09;;;;;;;11.18;4.10;;;;;;;23.42;48.07;101856.13;16143227;19;129210;-58
2022/07/21 10:55:35;;;;;;;7.78;3.97;;;;;;;23.41;47.71;101854.41;16146792;19;129658;-62
2022/07/21 11:01:00;;;;;;;8.52;3.72;;;;;;;23.33;47.70;101861.28;16146148;19;129492;-57
2022/07/21 11:06:32;;;;;;;12.63;3.95;;;;;;;23.29;47.49;101865.69;16141564;19;129150;-58
2022/07/21 11:12:01;;;;;;;8.63;3.20;;;;;;;23.31;47.73;101877.44;16140575;19;129818;-57
2022/07/21 11:17:31;;;;;;;7.47;2.95;;;;;;;23.32;47.76;101887.50;16140211;19;129440;-57
2022/07/21 11:22:54;;;;;;;12.43;2.90;;;;;;;23.29;47.64;101892.75;16139407;19;130203;-58
2022/07/21 11:28:17;;;;;;;6.80;2.33;;;;;;;23.31;47.83;101894.19;16139868;19;130056;-60
2022/07/21 11:33:41;;;;;;;7.72;2.30;;;;;;;23.33;47.58;101893.94;16144889;19;129478;-59
2022/07/21 11:39:09;;;;;;;6.78;1.90;;;;;;;23.40;47.93;101890.97;16136387;19;130080;-60
2022/07/21 11:44:31;;;;;;;4.40;2.40;;;;;;;23.42;47.93;101897.13;16142725;19;129390;-59
2022/07/21 11:49:55;;;;;;;4.20;2.05;;;;;;;23.42;47.55;101902.72;16136560;19;130205;-56
2022/07/21 11:55:17;;;;;;;7.53;2.20;;;;;;;23.43;47.96;101898.84;16136019;19;129772;-59
2022/07/21 12:00:38;;;;;;;4.15;2.00;;;;;;;23.47;47.77;101894.44;16133321;19;129466;-59
2022/07/21 12:06:01;;;;;;;4.15;2.58;;;;;;;23.48;47.81;101898.91;16135309;19;130154;-56
2022/07/21 12:11:35;;;;;;;5.78;2.17;;;;;;;23.49;48.34;101901.44;16132274;19;130338;-58
2022/07/21 12:16:57;;;;;;;6.47;2.40;;;;;;;23.50;47.84;101911.53;16136978;19;129388;-59
2022/07/21 12:22:35;;;;;;;5.32;2.17;;;;;;;23.54;48.29;101917.44;16135823;19;129459;-59
2022/07/21 12:27:57;;;;;;;6.20;2.20;;;;;;;23.54;47.89;101913.81;16133766;19;130180;-51
2022/07/21 12:33:28;;;;;;;10.13;2.53;;;;;;;23.54;47.75;101923.00;16139006;19;131602;-60
2022/07/21 12:38:50;;;;;;;4.72;2.50;;;;;;;23.51;48.17;101923.53;16132890;19;129697;-60
2022/07/21 12:44:13;;;;;;;7.45;2.58;;;;;;;23.51;47.87;101929.09;16135652;19;129902;-59
2022/07/21 12:50:01;;;;;;;5.97;2.33;;;;;;;23.53;48.34;101937.25;16138783;19;130047;-55
2022/07/21 12:55:43;;;;;;;5.00;2.33;;;;;;;23.49;47.88;101936.91;16140910;19;129742;-56
2022/07/21 13:01:05;;;;;;;4.78;2.00;;;;;;;23.48;48.07;101941.66;16130880;19;129008;-56
2022/07/21 13:06:27;;;;;;;5.70;1.83;;;;;;;23.49;48.26;101939.72;16129525;19;129222;-55
2022/07/21 13:11:49;;;;;;;4.05;2.13;;;;;;;23.48;48.21;101946.41;16135020;19;129656;-56
2022/07/21 13:17:11;;;;;;;3.70;2.17;;;;;;;23.50;48.08;101947.81;16126904;19;129418;-59
2022/07/21 13:22:33;;;;;;;4.35;2.13;;;;;;;23.48;48.22;101944.44;16131592;19;129288;-61
2022/07/21 13:27:54;;;;;;;8.38;2.47;;;;;;;23.48;48.27;101951.97;16133247;19;129609;-59
2022/07/21 13:33:16;;;;;;;6.88;2.22;;;;;;;23.49;48.20;101956.47;16132959;19;129332;-61
2022/07/21 13:38:39;;;;;;;7.25;2.60;;;;;;;23.48;48.23;101966.78;16133202;19;129319;-60
2022/07/21 13:44:00;;;;;;;7.90;2.92;;;;;;;23.46;47.86;101955.00;16129929;19;129439;-59
2022/07/21 13:49:23;;;;;;;8.35;2.80;;;;;;;23.47;48.15;101956.72;16127540;19;130373;-56
2022/07/21 13:54:45;;;;;;;7.30;2.35;;;;;;;23.48;48.16;101955.59;16131380;19;130197;-58
2022/07/21 14:00:09;;;;;;;4.97;2.20;;;;;;;23.52;47.76;101964.31;16129940;19;131197;-58
2022/07/21 14:05:31;;;;;;;21.90;3.00;;;;;;;23.52;48.31;101964.31;16125571;19;129511;-59
2022/07/21 14:10:53;;;;;;;14.93;2.83;;;;;;;23.55;48.13;101977.78;16130217;19;129317;-61
2022/07/21 14:16:15;;;;;;;18.70;2.97;;;;;;;23.59;48.06;101981.78;16132387;19;129865;-59
2022/07/21 14:21:37;;;;;;;8.13;2.42;;;;;;;23.61;47.87;101990.78;16144247;19;130081;-60
2022/07/21 14:26:59;;;;;;;10.40;2.65;;;;;;;23.64;47.77;101986.63;16146767;19;129183;-55
2022/07/21 14:32:24;;;;;;;20.05;2.97;;;;;;;23.69;47.64;101999.81;16147062;19;132329;-57
2022/07/21 14:37:50;;;;;;;20.25;3.10;;;;;;;23.75;47.61;101996.03;16142325;19;129262;-58
2022/07/21 14:43:12;;;;;;;14.85;2.65;;;;;;;23.77;47.69;102002.16;16146856;19;129121;-58
2022/07/21 14:48:34;;;;;;;10.48;2.47;;;;;;;23.78;47.56;102001.94;16146328;19;129656;-57
2022/07/21 14:53:56;;;;;;;30.55;3.47;;;;;;;23.79;47.46;102009.22;16141056;19;129443;-57
2022/07/21 14:59:18;;;;;;;24.45;2.85;;;;;;;23.79;47.66;102011.16;16141877;19;129773;-56
2022/07/21 15:04:40;;;;;;;23.45;2.92;;;;;;;23.79;47.59;102014.81;16142125;19;129943;-58
2022/07/21 15:10:02;;;;;;;12.30;2.92;;;;;;;23.79;47.17;102008.34;16146101;19;129061;-58
2022/07/21 15:15:24;;;;;;;13.00;2.92;;;;;;;23.80;47.54;102019.28;16142519;19;129766;-57
2022/07/21 15:20:46;;;;;;;11.18;3.00;;;;;;;23.80;47.34;102019.28;16135894;19;129671;-57
2022/07/21 15:26:08;;;;;;;14.27;3.45;;;;;;;23.79;47.28;102020.38;16143542;19;130509;-56
2022/07/21 15:31:31;;;;;;;11.93;2.83;;;;;;;23.78;47.29;102015.91;16145383;19;129766;-57
2022/07/21 15:36:53;;;;;;;9.65;3.58;;;;;;;23.78;47.15;102017.84;16142740;19;130288;-56
2022/07/21 15:42:15;;;;;;;12.93;2.53;;;;;;;23.78;47.55;102021.50;16136975;19;129134;-56
2022/07/21 15:47:36;;;;;;;16.98;3.60;;;;;;;23.78;47.19;102029.88;16139275;19;130554;-57
2022/07/21 15:52:58;;;;;;;29.30;4.20;;;;;;;23.78;47.42;102023.41;16135377;19;129753;-57
2022/07/21 15:58:20;;;;;;;12.10;3.15;;;;;;;23.76;47.07;102020.91;16139321;19;129390;-57
2022/07/21 16:03:42;;;;;;;18.23;3.50;;;;;;;23.75;46.82;102029.53;16138299;19;129963;-58
2022/07/21 16:09:04;;;;;;;21.23;3.33;;;;;;;23.72;47.02;102032.84;16139455;19;129522;-56
2022/07/21 16:14:27;;;;;;;8.45;2.90;;;;;;;23.72;47.34;102044.84;16139974;19;129421;-56
2022/07/21 16:19:48;;;;;;;9.65;2.70;;;;;;;23.70;46.96;102049.00;16134766;19;129369;-58
2022/07/21 16:25:16;;;;;;;9.23;2.78;;;;;;;23.70;47.00;102049.00;16139112;19;129749;-57
2022/07/21 16:30:38;;;;;;;8.43;2.75;;;;;;;23.67;46.58;102050.38;16140706;19;129287;-57
2022/07/21 16:36:00;;;;;;;12.25;3.00;;;;;;;23.61;46.82;102048.56;16140302;19;130330;-57
2022/07/21 16:41:22;;;;;;;12.18;3.50;;;;;;;23.62;46.55;102045.53;16133348;19;130720;-57
2022/07/21 16:46:45;;;;;;;13.40;3.78;;;;;;;23.62;46.50;102048.34;16138626;19;129024;-57
2022/07/21 16:52:07;;;;;;;13.52;3.97;;;;;;;23.62;46.40;102051.13;16135145;19;129910;-57
2022/07/21 16:57:29;;;;;;;17.67;4.93;;;;;;;23.62;46.43;102048.34;16136137;19;129342;-56
2022/07/21 17:02:50;;;;;;;13.88;5.03;;;;;;;23.61;46.54;102051.38;16137779;19;130456;-56
2022/07/21 17:08:12;;;;;;;16.85;4.90;;;;;;;23.59;46.62;102054.44;16138260;19;129458;-60
2022/07/21 17:13:35;;;;;;;20.05;8.93;;;;;;;23.60;46.74;102060.84;16137867;19;129262;-54
2022/07/21 17:18:56;;;;;;;22.80;11.57;;;;;;;23.59;46.98;102060.00;16137552;19;131784;-57
2022/07/21 17:24:18;;;;;;;30.00;13.75;;;;;;;23.59;47.13;102060.00;16136681;19;129435;-59
2022/07/21 17:29:40;;;;;;;25.80;13.35;;;;;;;23.59;46.83;102064.72;16137892;19;129592;-59
2022/07/21 17:35:04;;;;;;;23.15;12.40;;;;;;;23.58;46.85;102063.91;16136830;19;129063;-60
2022/07/21 17:40:25;;;;;;;28.13;11.98;;;;;;;23.59;46.72;102057.22;16132684;19;129467;-59
2022/07/21 17:45:47;;;;;;;24.98;12.57;;;;;;;23.60;46.86;102056.13;16136812;19;130905;-56
2022/07/21 17:51:11;;;;;;;22.42;12.50;;;;;;;23.61;46.70;102065.34;16132710;19;130950;-59
2022/07/21 17:56:33;;;;;;;23.30;12.65;;;;;;;23.58;46.53;102063.91;16148510;19;128863;-58
2022/07/21 18:01:54;;;;;;;21.65;12.18;;;;;;;23.55;46.75;102064.38;16145519;19;129786;-59
2022/07/21 18:07:16;;;;;;;22.15;10.55;;;;;;;23.55;46.34;102067.16;16143599;19;129394;-57
2022/07/21 18:12:38;;;;;;;16.90;9.40;;;;;;;23.54;46.53;102059.03;16149143;19;129598;-57
2022/07/21 18:18:00;;;;;;;17.00;8.75;;;;;;;23.53;46.39;102065.72;16149170;19;129197;-56
2022/07/21 18:23:22;;;;;;;20.27;8.88;;;;;;;23.51;46.24;102071.53;16148076;19;129286;-56
2022/07/21 18:28:44;;;;;;;15.50;7.38;;;;;;;23.50;46.66;102086.63;16148150;19;131530;-57
2022/07/21 18:34:06;;;;;;;16.60;6.93;;;;;;;23.50;46.21;102089.44;16146307;19;130617;-57
2022/07/21 18:39:28;;;;;;;19.15;6.40;;;;;;;23.44;46.44;102090.41;16138476;19;129771;-58
2022/07/21 18:44:50;;;;;;;26.80;6.03;;;;;;;23.44;46.38;102091.28;16142404;19;129630;-59
2022/07/21 18:50:12;;;;;;;34.42;5.43;;;;;;;23.48;46.17;102094.41;16143489;19;129676;-54
2022/07/21 18:55:33;;;;;;;26.05;5.25;;;;;;;23.50;46.37;102093.06;16144827;19;130038;-57
2022/07/21 19:00:56;;;;;;;21.73;4.80;;;;;;;23.53;46.28;102090.88;16139953;19;129747;-56
2022/07/21 19:06:18;;;;;;;23.15;4.53;;;;;;;23.53;46.08;102099.25;16138031;19;129706;-57
2022/07/21 19:11:41;;;;;;;29.85;4.95;;;;;;;23.53;46.06;102093.66;16143273;19;130020;-57
2022/07/21 19:17:02;;;;;;;25.38;3.97;;;;;;;23.55;45.91;102095.09;16143414;19;130525;-60
2022/07/21 19:22:24;;;;;;;31.88;4.13;;;;;;;23.55;45.83;102095.09;16139404;19;130139;-57
2022/07/21 19:27:46;;;;;;;27.23;4.38;;;;;;;23.57;45.52;102100.44;16142282;19;129247;-54
2022/07/21 19:33:08;;;;;;;19.05;3.70;;;;;;;23.57;45.55;102112.47;16141625;19;129093;-58
2022/07/21 19:38:30;;;;;;;17.42;3.65;;;;;;;23.58;45.35;102107.69;16142721;19;130223;-59
2022/07/21 19:43:53;;;;;;;18.92;3.38;;;;;;;23.61;45.30;102124.84;16144474;19;129583;-57
2022/07/21 19:49:15;;;;;;;12.18;3.75;;;;;;;23.61;45.28;102118.41;16143154;19;129958;-59
2022/07/21 19:54:39;;;;;;;23.65;3.85;;;;;;;23.62;44.89;102118.19;16138708;19;129874;-54
2022/07/21 20:00:10;;;;;;;12.90;3.35;;;;;;;23.61;44.71;102130.44;16139174;19;129386;-57
2022/07/21 20:05:33;;;;;;;12.95;3.13;;;;;;;23.65;45.34;102137.19;16137999;19;129348;-58
2022/07/21 20:10:55;;;;;;;15.32;3.28;;;;;;;23.68;44.87;102132.22;16138703;19;129975;-58
2022/07/21 20:16:17;;;;;;;12.23;3.13;;;;;;;23.68;44.91;102137.81;16133420;19;129472;-58
2022/07/21 20:21:39;;;;;;;13.85;2.30;;;;;;;23.69;44.78;102139.50;16130703;19;130223;-58
2022/07/21 20:27:00;;;;;;;27.27;3.45;;;;;;;23.66;45.20;102150.06;16138301;19;129545;-56
2022/07/21 20:32:22;;;;;;;22.83;3.40;;;;;;;23.68;45.09;102137.81;16134515;19;130187;-57
2022/07/21 20:37:45;;;;;;;11.18;2.50;;;;;;;23.68;45.17;102146.19;16139785;19;129262;-66
2022/07/21 20:43:11;;;;;;;13.02;3.05;;;;;;;23.68;45.08;102137.81;16125828;19;129995;-63
2022/07/21 20:48:35;;;;;;;10.15;2.60;;;;;;;23.69;45.44;102143.16;16136497;19;129715;-70
2022/07/21 20:53:57;;;;;;;11.27;2.45;;;;;;;23.66;44.81;102141.69;16132489;19;129904;-66
2022/07/21 20:59:18;;;;;;;10.80;2.30;;;;;;;23.66;45.37;102138.91;16134604;19;130074;-62
2022/07/21 21:04:41;;;;;;;19.50;2.75;;;;;;;23.65;45.16;102142.78;16134213;19;129430;-62
2022/07/21 21:10:04;;;;;;;8.77;1.95;;;;;;;23.68;45.23;102146.19;16137069;19;129123;-61
2022/07/21 21:15:26;;;;;;;8.43;1.98;;;;;;;23.68;45.49;102149.84;16136188;19;128983;-63
2022/07/21 21:20:48;;;;;;;15.65;2.70;;;;;;;23.71;45.28;102145.69;16134267;19;130418;-66
2022/07/21 21:26:10;;;;;;;7.78;1.90;;;;;;;23.71;45.38;102154.06;16127481;19;131197;-66
2022/07/21 21:31:32;;;;;;;25.17;2.70;;;;;;;23.68;45.43;102151.78;16126421;19;130264;-53
2022/07/21 21:36:54;;;;;;;16.50;2.47;;;;;;;23.64;45.54;102149.47;16129592;19;131623;-67
2022/07/21 21:42:16;;;;;;;14.23;2.25;;;;;;;23.60;45.70;102145.50;16123376;19;129651;-59
2022/07/21 21:47:38;;;;;;;11.50;2.25;;;;;;;23.58;45.65;102136.53;16131467;19;129016;-59
2022/07/21 21:53:00;;;;;;;8.65;1.75;;;;;;;23.56;45.57;102141.47;16124823;19;130276;-59
2022/07/21 21:58:22;;;;;;;8.23;1.80;;;;;;;23.54;45.60;102135.28;16130887;19;130162;-59
2022/07/21 22:03:43;;;;;;;5.47;1.90;;;;;;;23.53;45.92;102130.81;16128319;19;131194;-61
2022/07/21 22:09:05;;;;;;;4.63;1.52;;;;;;;23.51;45.83;102133.00;16127768;19;129532;-58
2022/07/21 22:14:27;;;;;;;6.38;1.60;;;;;;;23.48;45.77;102139.94;16132012;19;129537;-58
2022/07/21 22:19:49;;;;;;;7.10;1.50;;;;;;;23.49;46.01;102143.59;16129747;19;130032;-57
2022/07/21 22:25:11;;;;;;;6.25;1.50;;;;;;;23.46;45.99;102142.13;16128362;19;128909;-58
2022/07/21 22:30:33;;;;;;;7.97;1.77;;;;;;;23.45;46.08;102142.38;16128954;19;130148;-58
2022/07/21 22:35:55;;;;;;;6.85;1.50;;;;;;;23.45;46.41;102142.38;16129059;19;131144;-56
2022/07/21 22:41:17;;;;;;;6.63;1.42;;;;;;;23.43;45.72;102141.78;16136836;19;129602;-57
2022/07/21 22:46:39;;;;;;;3.78;1.10;;;;;;;23.41;45.81;102141.19;16143690;19;129504;-57
2022/07/21 22:52:01;;;;;;;5.85;1.60;;;;;;;23.41;46.09;102146.78;16140299;19;129593;-57
2022/07/21 22:57:22;;;;;;;3.08;1.02;;;;;;;23.40;46.42;102145.06;16144540;19;130057;-57
2022/07/21 23:02:44;;;;;;;5.25;1.25;;;;;;;23.38;46.08;102136.13;16138171;19;129497;-57
2022/07/21 23:08:06;;;;;;;5.53;1.20;;;;;;;23.37;45.97;102137.22;16143201;19;130533;-57
2022/07/21 23:13:28;;;;;;;4.97;1.20;;;;;;;23.37;45.98;102131.63;16141049;19;129880;-57
2022/07/21 23:18:50;;;;;;;4.70;1.30;;;;;;;23.37;46.21;102134.41;16141850;19;129319;-57
2022/07/21 23:24:12;;;;;;;3.05;0.70;;;;;;;23.35;46.47;102129.94;16141075;19;129186;-53
2022/07/21 23:29:34;;;;;;;4.60;1.00;;;;;;;23.34;46.60;102133.81;16139550;19;130672;-58
2022/07/21 23:34:56;;;;;;;3.25;1.10;;;;;;;23.32;46.33;102122.06;16139252;19;131083;-57
2022/07/21 23:40:18;;;;;;;3.33;0.80;;;;;;;23.32;46.13;102127.63;16138769;19;130232;-57
2022/07/21 23:45:40;;;;;;;5.10;1.15;;;;;;;23.31;46.33;102119.53;16136629;19;130431;-57
2022/07/21 23:51:02;;;;;;;2.58;1.00;;;;;;;23.30;46.27;102106.66;16138044;19;132254;-58
2022/07/21 23:56:23;;;;;;;2.80;1.20;;;;;;;23.28;46.22;102104.09;16139639;19;129739;-57
